createdAt,value
2022-08-08T00:01:08.611Z,1.90
2022-08-08T00:06:43.424Z,1.90
2022-08-08T00:12:08.030Z,2.20
2022-08-08T00:17:58.450Z,2.10
2022-08-08T00:23:06.407Z,1.90
2022-08-08T00:28:34.457Z,2.00
2022-08-08T00:34:18.399Z,2.00
2022-08-08T00:41:07.728Z,2.00
2022-08-08T00:44:54.047Z,1.70
2022-08-08T00:50:27.318Z,1.90
2022-08-08T00:55:53.249Z,2.10
2022-08-08T01:01:12.225Z,1.90
2022-08-08T01:06:49.213Z,1.90
2022-08-08T01:12:05.622Z,1.80
2022-08-08T01:17:29.973Z,2.20
2022-08-08T01:23:55.054Z,2.00
2022-08-08T01:29:08.123Z,1.90
2022-08-08T01:34:46.784Z,1.80
2022-08-08T01:40:14.662Z,2.50
2022-08-08T01:45:50.465Z,2.60
2022-08-08T01:51:31.715Z,2.00
2022-08-08T01:58:12.032Z,1.90
2022-08-08T02:03:56.210Z,2.20
2022-08-08T02:08:59.379Z,2.70
2022-08-08T02:14:04.781Z,3.00
2022-08-08T02:19:57.191Z,2.30
2022-08-08T02:25:16.421Z,2.80
2022-08-08T02:30:35.199Z,2.70
2022-08-08T02:36:04.280Z,2.70
2022-08-08T02:42:04.371Z,2.70
2022-08-08T02:47:00.701Z,3.00
2022-08-08T02:52:34.994Z,3.00
2022-08-08T02:58:01.531Z,2.70
2022-08-08T03:05:00.611Z,2.50
2022-08-08T03:08:59.162Z,3.50
2022-08-08T03:15:56.872Z,3.90
2022-08-08T03:20:10.546Z,3.50
2022-08-08T03:25:18.626Z,3.70
2022-08-08T03:30:21.671Z,3.50
2022-08-08T03:35:26.689Z,3.90
2022-08-08T03:40:33.597Z,3.90
2022-08-08T03:46:04.884Z,4.00
2022-08-08T03:51:06.916Z,4.10
2022-08-08T03:56:09.965Z,3.90
2022-08-08T04:02:31.590Z,3.80
2022-08-08T04:07:02.118Z,4.20
2022-08-08T04:12:06.387Z,4.00
2022-08-08T04:17:22.454Z,3.50
2022-08-08T04:22:37.356Z,3.20
2022-08-08T04:28:01.544Z,3.50
2022-08-08T04:33:03.711Z,3.30
2022-08-08T04:38:06.445Z,3.10
2022-08-08T04:43:12.193Z,3.60
2022-08-08T04:48:16.151Z,4.30
2022-08-08T04:54:27.629Z,4.10
2022-08-08T04:58:41.039Z,3.60
2022-08-08T05:04:09.956Z,4.10
2022-08-08T05:09:06.305Z,3.80
2022-08-08T05:14:12.427Z,4.20
2022-08-08T05:20:09.994Z,4.10
2022-08-08T05:24:38.376Z,3.70
2022-08-08T05:29:42.211Z,3.20
2022-08-08T05:34:49.909Z,3.40
2022-08-08T05:39:56.012Z,3.00
2022-08-08T05:45:24.626Z,2.30
2022-08-08T05:50:26.518Z,2.30
2022-08-08T05:55:30.444Z,2.40
2022-08-08T06:00:56.841Z,2.00
2022-08-08T06:06:06.670Z,2.00
2022-08-08T06:11:10.688Z,2.10
2022-08-08T06:16:16.874Z,2.10
2022-08-08T06:21:32.770Z,2.10
2022-08-08T06:26:52.449Z,2.20
2022-08-08T06:32:10.645Z,1.80
2022-08-08T06:37:25.111Z,2.30
2022-08-08T06:42:35.933Z,1.70
2022-08-08T06:47:58.654Z,1.60
2022-08-08T06:53:10.100Z,1.60
2022-08-08T06:58:19.553Z,1.80
2022-08-08T07:04:37.613Z,1.50
2022-08-08T07:09:20.809Z,1.60
2022-08-08T07:14:36.851Z,1.20
2022-08-08T07:19:41.914Z,1.00
2022-08-08T07:24:59.467Z,1.20
2022-08-08T07:30:08.279Z,1.40
2022-08-08T07:35:16.644Z,1.20
2022-08-08T07:40:29.728Z,1.10
2022-08-08T07:46:04.707Z,1.10
2022-08-08T07:51:00.576Z,1.00
2022-08-08T07:56:04.370Z,1.10
2022-08-08T08:01:12.136Z,1.20
2022-08-08T08:06:17.607Z,1.20
2022-08-08T08:11:23.633Z,1.30
2022-08-08T08:16:41.134Z,1.30
2022-08-08T08:21:53.510Z,1.30
2022-08-08T08:27:02.985Z,1.10
2022-08-08T08:32:06.858Z,1.40
2022-08-08T08:37:11.607Z,1.40
2022-08-08T08:42:19.376Z,1.40
2022-08-08T08:47:43.970Z,1.30
2022-08-08T08:52:58.557Z,1.40
2022-08-08T08:58:03.766Z,1.30
2022-08-08T09:03:09.190Z,1.30
2022-08-08T09:08:18.347Z,1.40
2022-08-08T09:13:27.950Z,1.10
2022-08-08T09:18:31.061Z,1.40
2022-08-08T09:23:40.620Z,1.40
2022-08-08T09:28:44.181Z,1.30
2022-08-08T09:34:14.773Z,1.40
2022-08-08T09:39:20.646Z,1.50
2022-08-08T09:44:36.377Z,1.50
2022-08-08T09:49:42.341Z,1.20
2022-08-08T09:54:54.478Z,1.40
2022-08-08T10:05:27.976Z,1.20
2022-08-08T10:10:50.109Z,1.40
2022-08-08T10:16:00.672Z,1.30
2022-08-08T10:21:23.040Z,1.30
2022-08-08T10:26:57.455Z,1.20
2022-08-08T10:32:20.694Z,1.40
2022-08-08T10:37:30.243Z,1.30
2022-08-08T10:42:35.797Z,1.80
2022-08-08T10:47:48.312Z,1.60
2022-08-08T10:53:02.439Z,1.70
2022-08-08T10:58:11.724Z,1.40
2022-08-08T11:08:38.686Z,1.50
2022-08-08T11:13:52.096Z,1.80
2022-08-08T11:19:04.729Z,1.40
2022-08-08T11:29:14.062Z,1.70
2022-08-08T11:34:24.516Z,1.90
2022-08-08T11:39:41.374Z,1.70
2022-08-08T11:44:45.752Z,1.50
2022-08-08T11:49:53.045Z,1.60
2022-08-08T11:54:55.486Z,2.20
2022-08-08T12:00:02.598Z,1.60
2022-08-08T12:05:12.557Z,1.60
2022-08-08T12:10:19.110Z,1.40
2022-08-08T12:15:41.798Z,1.30
2022-08-08T12:20:45.777Z,1.40
2022-08-08T12:25:52.687Z,1.60
2022-08-08T12:31:10.012Z,1.60
2022-08-08T12:36:14.094Z,1.40
2022-08-08T12:41:33.855Z,1.60
2022-08-08T12:46:38.209Z,1.60
2022-08-08T12:51:50.246Z,1.50
2022-08-08T12:57:21.230Z,1.80
2022-08-08T13:02:33.571Z,1.30
2022-08-08T13:08:02.831Z,1.90
2022-08-08T13:13:06.139Z,1.70
2022-08-08T13:18:13.770Z,1.60
2022-08-08T13:23:30.229Z,1.70
2022-08-08T13:28:37.650Z,1.50
2022-08-08T13:33:50.650Z,1.60
2022-08-08T13:39:00.066Z,1.60
2022-08-08T13:44:03.148Z,1.50
2022-08-08T13:50:34.788Z,2.00
2022-08-08T13:54:49.740Z,3.00
2022-08-08T14:00:05.473Z,2.10
2022-08-08T14:05:22.351Z,1.70
2022-08-08T14:10:33.779Z,2.60
2022-08-08T14:15:46.364Z,1.70
2022-08-08T14:21:02.646Z,1.80
2022-08-08T14:26:11.556Z,1.80
2022-08-08T14:31:20.457Z,1.60
2022-08-08T14:36:41.469Z,2.40
2022-08-08T14:42:03.120Z,1.60
2022-08-08T14:47:17.231Z,1.90
2022-08-08T14:52:24.001Z,1.70
2022-08-08T14:58:02.754Z,1.70
2022-08-08T15:03:01.713Z,1.60
2022-08-08T15:08:22.177Z,1.60
2022-08-08T15:13:40.868Z,1.70
2022-08-08T15:18:58.387Z,1.60
2022-08-08T15:24:00.889Z,1.80
2022-08-08T15:29:03.616Z,1.80
2022-08-08T15:34:29.118Z,1.40
2022-08-08T15:39:38.300Z,1.60
2022-08-08T15:44:42.607Z,1.90
2022-08-08T15:49:46.536Z,1.60
2022-08-08T15:54:51.632Z,1.80
2022-08-08T16:05:17.432Z,1.40
2022-08-08T16:13:14.683Z,1.70
2022-08-08T16:15:59.708Z,1.80
2022-08-08T16:21:20.796Z,1.50
2022-08-08T16:26:34.516Z,1.80
2022-08-08T16:31:44.791Z,1.70
2022-08-08T16:36:52.684Z,2.00
2022-08-08T16:42:01.278Z,1.80
2022-08-08T16:47:40.670Z,1.90
2022-08-08T16:55:02.814Z,2.10
2022-08-08T16:58:15.941Z,1.90
2022-08-08T17:03:24.430Z,1.90
2022-08-08T17:08:37.758Z,2.00
2022-08-08T17:13:50.290Z,2.00
2022-08-08T17:19:03.671Z,2.10
2022-08-08T17:24:09.940Z,1.90
2022-08-08T17:29:25.390Z,2.00
2022-08-08T17:34:48.097Z,2.00
2022-08-08T17:40:05.868Z,2.20
2022-08-08T17:45:21.126Z,2.20
2022-08-08T17:50:25.714Z,2.00
2022-08-08T17:56:04.849Z,2.40
2022-08-08T18:00:56.204Z,2.10
2022-08-08T18:06:00.090Z,2.10
2022-08-08T18:11:08.446Z,1.90
2022-08-08T18:16:12.819Z,1.80
2022-08-08T18:21:35.630Z,1.80
2022-08-08T18:26:42.809Z,1.70
2022-08-08T18:31:55.982Z,2.00
2022-08-08T18:37:00.318Z,2.20
2022-08-08T18:42:04.138Z,2.20
2022-08-08T18:47:06.732Z,2.40
2022-08-08T18:52:18.578Z,2.40
2022-08-08T18:57:25.370Z,2.50
2022-08-08T19:02:30.037Z,2.10
2022-08-08T19:07:33.557Z,2.20
2022-08-08T19:12:44.427Z,2.30
2022-08-08T19:17:48.103Z,2.10
2022-08-08T19:23:10.700Z,2.40
2022-08-08T19:28:19.405Z,2.50
2022-08-08T19:33:24.398Z,2.50
2022-08-08T19:38:27.010Z,2.50
2022-08-08T19:43:30.503Z,2.60
2022-08-08T19:48:33.653Z,2.80
2022-08-08T19:53:51.613Z,3.00
2022-08-08T19:58:56.197Z,3.40
2022-08-08T20:04:03.392Z,2.60
2022-08-08T20:09:09.037Z,2.70
2022-08-08T20:14:34.318Z,2.50
2022-08-08T20:19:43.375Z,2.40
2022-08-08T20:24:46.115Z,2.70
2022-08-08T20:29:55.707Z,2.40
2022-08-08T20:35:04.634Z,2.20
2022-08-08T20:40:08.374Z,2.50
2022-08-08T20:45:11.016Z,2.20
2022-08-08T20:50:15.073Z,2.40
2022-08-08T20:55:22.828Z,2.40
2022-08-08T21:00:28.449Z,2.20
2022-08-08T21:05:32.863Z,2.70
2022-08-08T21:10:52.124Z,2.60
2022-08-08T21:16:05.999Z,2.70
2022-08-08T21:21:20.640Z,3.10
2022-08-08T21:26:41.435Z,2.60
2022-08-08T21:31:58.398Z,2.40
2022-08-08T21:37:11.166Z,3.20
2022-08-08T21:42:14.017Z,3.00
2022-08-08T21:48:01.873Z,2.90
2022-08-08T21:54:33.836Z,3.00
2022-08-08T21:58:05.465Z,2.80
2022-08-08T22:03:11.082Z,2.80
2022-08-08T22:08:24.248Z,2.50
2022-08-08T22:13:26.898Z,2.80
2022-08-08T22:18:52.636Z,3.40
2022-08-08T22:23:55.658Z,3.20
2022-08-08T22:29:14.203Z,2.90
2022-08-08T22:34:22.812Z,3.10
2022-08-08T22:39:39.421Z,3.00
2022-08-08T22:44:48.910Z,3.50
2022-08-08T22:49:53.829Z,3.30
2022-08-08T22:55:06.037Z,2.80
2022-08-08T23:00:13.485Z,2.90
2022-08-08T23:05:16.137Z,5.10
2022-08-08T23:10:21.340Z,3.70
2022-08-08T23:16:41.992Z,4.40
2022-08-08T23:20:54.939Z,4.30
2022-08-08T23:26:01.162Z,3.60
2022-08-08T23:31:03.571Z,5.00
2022-08-08T23:36:08.931Z,6.50
2022-08-08T23:41:22.883Z,4.20
2022-08-08T23:49:06.332Z,4.30
2022-08-08T23:52:06.497Z,5.90
2022-08-08T23:57:25.241Z,5.90
